<?xml version="1.0" encoding="UTF-8" standalone="no" ?>
<gpx xmlns="http://www.topografix.com/GPX/1/1" xmlns:xsi="http://www.w3.org/2001/XMLSchema-instance" xsi:schemaLocation="http://www.topografix.com/GPX/1/1 http://www.topografix.com/GPX/1/1/gpx.xsd" version="1.1" creator="VisuGPX - https://www.visugpx.com">
  <metadata>
    <name>Nantes_HopitauRenardsCensErdre-12km</name>
    <desc><![CDATA[D1 le 31/03/24 12.4km]]></desc>
  </metadata>
  <trk>
    <name><![CDATA[Nantes_CouleeRenardsCensErdre_12.4km20427795]]></name>
    <desc><![CDATA[D1 le 31/03/24 <p>Heure de départ: 03/31/2024 14:04<br/>Heure d'arrivée: 03/31/2024 16:32<br/>Distance: 12,4 km (02:27)<br/>Temps déplacement: 02:20<br/>Vitesse moyenne: 5,03 km/h<br/>Vitesse moyenne mouv.: 5,28 km/h<br/>Vitesse Max.: 7,47 km/h<br/>Altitude minimale: 3 m<br/>Altitude maximale: 39 m<br/>Vitesse de montée: 138,2 m/h<br/>Vitesse de descente: -137,3 m/h<br/>Gain d'altitude: 166 m<br/>Perte d'altitude: -161 m<br/>Temps de montée: 01:12<br/>Temps de descente: 01:10<br/></p><hr align="center" width="480" style="height: 2px; width: 517px"/>]]></desc>
    <extensions>
      <line xmlns="http://www.topografix.com/GPX/gpx_style/0/2">
        <color>800080</color>
        <width>4</width>
      </line>
    </extensions>
    <trkseg>
      <trkpt lat="47.26818" lon="-1.55296">
        <ele>25</ele>
        <time>2024-03-31T12:04:25Z</time>
      </trkpt>
      <trkpt lat="47.26801" lon="-1.55307">
        <ele>25</ele>
        <time>2024-03-31T12:04:38Z</time>
      </trkpt>
      <trkpt lat="47.26786" lon="-1.5533">
        <ele>25</ele>
        <time>2024-03-31T12:04:54Z</time>
      </trkpt>
      <trkpt lat="47.26768" lon="-1.55337">
        <ele>23.02</ele>
        <time>2024-03-31T12:05:10Z</time>
      </trkpt>
      <trkpt lat="47.26751" lon="-1.55323">
        <ele>24.95</ele>
        <time>2024-03-31T12:05:26Z</time>
      </trkpt>
      <trkpt lat="47.26732" lon="-1.55314">
        <ele>23.02</ele>
        <time>2024-03-31T12:05:42Z</time>
      </trkpt>
      <trkpt lat="47.26712" lon="-1.55309">
        <ele>23</ele>
        <time>2024-03-31T12:05:58Z</time>
      </trkpt>
      <trkpt lat="47.26694" lon="-1.55304">
        <ele>23</ele>
        <time>2024-03-31T12:06:14Z</time>
      </trkpt>
      <trkpt lat="47.26675" lon="-1.55297">
        <ele>23</ele>
        <time>2024-03-31T12:06:30Z</time>
      </trkpt>
      <trkpt lat="47.26659" lon="-1.55283">
        <ele>21.18</ele>
        <time>2024-03-31T12:06:42Z</time>
      </trkpt>
      <trkpt lat="47.26638" lon="-1.55268">
        <ele>21</ele>
        <time>2024-03-31T12:06:58Z</time>
      </trkpt>
      <trkpt lat="47.26618" lon="-1.55253">
        <ele>21</ele>
        <time>2024-03-31T12:07:14Z</time>
      </trkpt>
      <trkpt lat="47.266" lon="-1.55239">
        <ele>21.99</ele>
        <time>2024-03-31T12:07:30Z</time>
      </trkpt>
      <trkpt lat="47.26582" lon="-1.55231">
        <ele>22</ele>
        <time>2024-03-31T12:07:46Z</time>
      </trkpt>
      <trkpt lat="47.26564" lon="-1.55239">
        <ele>22</ele>
        <time>2024-03-31T12:08:02Z</time>
      </trkpt>
      <trkpt lat="47.26555" lon="-1.55269">
        <ele>22.97</ele>
        <time>2024-03-31T12:08:18Z</time>
      </trkpt>
      <trkpt lat="47.26542" lon="-1.55294">
        <ele>23</ele>
        <time>2024-03-31T12:08:34Z</time>
      </trkpt>
      <trkpt lat="47.26529" lon="-1.55321">
        <ele>23</ele>
        <time>2024-03-31T12:08:50Z</time>
      </trkpt>
      <trkpt lat="47.26508" lon="-1.55321">
        <ele>23</ele>
        <time>2024-03-31T12:09:06Z</time>
      </trkpt>
      <trkpt lat="47.26489" lon="-1.55302">
        <ele>21.05</ele>
        <time>2024-03-31T12:09:22Z</time>
      </trkpt>
      <trkpt lat="47.26469" lon="-1.55286">
        <ele>21</ele>
        <time>2024-03-31T12:09:38Z</time>
      </trkpt>
      <trkpt lat="47.26449" lon="-1.55285">
        <ele>21</ele>
        <time>2024-03-31T12:09:54Z</time>
      </trkpt>
      <trkpt lat="47.2643" lon="-1.55266">
        <ele>21</ele>
        <time>2024-03-31T12:10:10Z</time>
      </trkpt>
      <trkpt lat="47.2641" lon="-1.55253">
        <ele>19.18</ele>
        <time>2024-03-31T12:10:26Z</time>
      </trkpt>
      <trkpt lat="47.26395" lon="-1.55238">
        <ele>20</ele>
        <time>2024-03-31T12:12:11Z</time>
      </trkpt>
      <trkpt lat="47.26374" lon="-1.55224">
        <ele>20</ele>
        <time>2024-03-31T12:12:27Z</time>
      </trkpt>
      <trkpt lat="47.26354" lon="-1.55207">
        <ele>20</ele>
        <time>2024-03-31T12:12:43Z</time>
      </trkpt>
      <trkpt lat="47.26333" lon="-1.552">
        <ele>17.9</ele>
        <time>2024-03-31T12:12:59Z</time>
      </trkpt>
      <trkpt lat="47.26315" lon="-1.5522">
        <ele>17.01</ele>
        <time>2024-03-31T12:13:15Z</time>
      </trkpt>
      <trkpt lat="47.26295" lon="-1.55233">
        <ele>17</ele>
        <time>2024-03-31T12:13:31Z</time>
      </trkpt>
      <trkpt lat="47.26279" lon="-1.55252">
        <ele>15.6</ele>
        <time>2024-03-31T12:13:47Z</time>
      </trkpt>
      <trkpt lat="47.26264" lon="-1.55278">
        <ele>15</ele>
        <time>2024-03-31T12:14:03Z</time>
      </trkpt>
      <trkpt lat="47.26247" lon="-1.55302">
        <ele>12.9</ele>
        <time>2024-03-31T12:14:20Z</time>
      </trkpt>
      <trkpt lat="47.26231" lon="-1.55326">
        <ele>12.01</ele>
        <time>2024-03-31T12:14:36Z</time>
      </trkpt>
      <trkpt lat="47.26215" lon="-1.55352">
        <ele>10.05</ele>
        <time>2024-03-31T12:14:52Z</time>
      </trkpt>
      <trkpt lat="47.26193" lon="-1.55356">
        <ele>10</ele>
        <time>2024-03-31T12:15:08Z</time>
      </trkpt>
      <trkpt lat="47.26171" lon="-1.55345">
        <ele>10</ele>
        <time>2024-03-31T12:15:24Z</time>
      </trkpt>
      <trkpt lat="47.2615" lon="-1.55336">
        <ele>9.01</ele>
        <time>2024-03-31T12:15:40Z</time>
      </trkpt>
      <trkpt lat="47.26128" lon="-1.55322">
        <ele>9.99</ele>
        <time>2024-03-31T12:15:56Z</time>
      </trkpt>
      <trkpt lat="47.26107" lon="-1.55318">
        <ele>10</ele>
        <time>2024-03-31T12:16:12Z</time>
      </trkpt>
      <trkpt lat="47.2609" lon="-1.55335">
        <ele>9.3</ele>
        <time>2024-03-31T12:16:28Z</time>
      </trkpt>
      <trkpt lat="47.26078" lon="-1.55364">
        <ele>7.18</ele>
        <time>2024-03-31T12:16:44Z</time>
      </trkpt>
      <trkpt lat="47.26066" lon="-1.55392">
        <ele>7</ele>
        <time>2024-03-31T12:17:00Z</time>
      </trkpt>
      <trkpt lat="47.26055" lon="-1.55419">
        <ele>6.3</ele>
        <time>2024-03-31T12:17:16Z</time>
      </trkpt>
      <trkpt lat="47.26046" lon="-1.5545">
        <ele>6</ele>
        <time>2024-03-31T12:17:32Z</time>
      </trkpt>
      <trkpt lat="47.26036" lon="-1.55479">
        <ele>6</ele>
        <time>2024-03-31T12:17:48Z</time>
      </trkpt>
      <trkpt lat="47.26026" lon="-1.55508">
        <ele>6.91</ele>
        <time>2024-03-31T12:18:04Z</time>
      </trkpt>
      <trkpt lat="47.26015" lon="-1.55538">
        <ele>7</ele>
        <time>2024-03-31T12:18:20Z</time>
      </trkpt>
      <trkpt lat="47.26007" lon="-1.55563">
        <ele>7</ele>
        <time>2024-03-31T12:18:33Z</time>
      </trkpt>
      <trkpt lat="47.26001" lon="-1.55591">
        <ele>7.91</ele>
        <time>2024-03-31T12:18:49Z</time>
      </trkpt>
      <trkpt lat="47.2601" lon="-1.55617">
        <ele>8</ele>
        <time>2024-03-31T12:19:05Z</time>
      </trkpt>
      <trkpt lat="47.26027" lon="-1.55632">
        <ele>8</ele>
        <time>2024-03-31T12:19:21Z</time>
      </trkpt>
      <trkpt lat="47.2604" lon="-1.5566">
        <ele>8</ele>
        <time>2024-03-31T12:19:37Z</time>
      </trkpt>
      <trkpt lat="47.26043" lon="-1.55693">
        <ele>14.94</ele>
        <time>2024-03-31T12:19:53Z</time>
      </trkpt>
      <trkpt lat="47.26038" lon="-1.55719">
        <ele>15</ele>
        <time>2024-03-31T12:20:06Z</time>
      </trkpt>
      <trkpt lat="47.26024" lon="-1.55743">
        <ele>15</ele>
        <time>2024-03-31T12:20:22Z</time>
      </trkpt>
      <trkpt lat="47.26003" lon="-1.55759">
        <ele>16.95</ele>
        <time>2024-03-31T12:20:38Z</time>
      </trkpt>
      <trkpt lat="47.25982" lon="-1.55766">
        <ele>15.02</ele>
        <time>2024-03-31T12:20:54Z</time>
      </trkpt>
      <trkpt lat="47.25964" lon="-1.55757">
        <ele>15</ele>
        <time>2024-03-31T12:21:10Z</time>
      </trkpt>
      <trkpt lat="47.25943" lon="-1.55757">
        <ele>15</ele>
        <time>2024-03-31T12:21:27Z</time>
      </trkpt>
      <trkpt lat="47.25918" lon="-1.55757">
        <ele>15</ele>
        <time>2024-03-31T12:21:43Z</time>
      </trkpt>
      <trkpt lat="47.25896" lon="-1.55753">
        <ele>11.03</ele>
        <time>2024-03-31T12:22:00Z</time>
      </trkpt>
      <trkpt lat="47.25882" lon="-1.55769">
        <ele>11</ele>
        <time>2024-03-31T12:22:13Z</time>
      </trkpt>
      <trkpt lat="47.2587" lon="-1.55798">
        <ele>11</ele>
        <time>2024-03-31T12:22:29Z</time>
      </trkpt>
      <trkpt lat="47.25854" lon="-1.55811">
        <ele>11</ele>
        <time>2024-03-31T12:22:42Z</time>
      </trkpt>
      <trkpt lat="47.25841" lon="-1.55836">
        <ele>15.2</ele>
        <time>2024-03-31T12:22:59Z</time>
      </trkpt>
      <trkpt lat="47.25837" lon="-1.55862">
        <ele>16.95</ele>
        <time>2024-03-31T12:23:12Z</time>
      </trkpt>
      <trkpt lat="47.25823" lon="-1.55882">
        <ele>15.05</ele>
        <time>2024-03-31T12:23:36Z</time>
      </trkpt>
      <trkpt lat="47.25809" lon="-1.55901">
        <ele>15</ele>
        <time>2024-03-31T12:23:50Z</time>
      </trkpt>
      <trkpt lat="47.25796" lon="-1.5592">
        <ele>17.8</ele>
        <time>2024-03-31T12:24:04Z</time>
      </trkpt>
      <trkpt lat="47.25774" lon="-1.55929">
        <ele>18.99</ele>
        <time>2024-03-31T12:24:21Z</time>
      </trkpt>
      <trkpt lat="47.25768" lon="-1.55957">
        <ele>19</ele>
        <time>2024-03-31T12:24:41Z</time>
      </trkpt>
      <trkpt lat="47.25761" lon="-1.55982">
        <ele>19</ele>
        <time>2024-03-31T12:24:54Z</time>
      </trkpt>
      <trkpt lat="47.25757" lon="-1.56008">
        <ele>18.09</ele>
        <time>2024-03-31T12:25:10Z</time>
      </trkpt>
      <trkpt lat="47.2575" lon="-1.56033">
        <ele>18</ele>
        <time>2024-03-31T12:25:23Z</time>
      </trkpt>
      <trkpt lat="47.25737" lon="-1.56053">
        <ele>14.11</ele>
        <time>2024-03-31T12:25:35Z</time>
      </trkpt>
      <trkpt lat="47.25724" lon="-1.56079">
        <ele>14</ele>
        <time>2024-03-31T12:25:51Z</time>
      </trkpt>
      <trkpt lat="47.2571" lon="-1.56105">
        <ele>11.02</ele>
        <time>2024-03-31T12:26:07Z</time>
      </trkpt>
      <trkpt lat="47.25707" lon="-1.56135">
        <ele>11</ele>
        <time>2024-03-31T12:26:23Z</time>
      </trkpt>
      <trkpt lat="47.25693" lon="-1.56159">
        <ele>11</ele>
        <time>2024-03-31T12:26:39Z</time>
      </trkpt>
      <trkpt lat="47.2568" lon="-1.56185">
        <ele>14.89</ele>
        <time>2024-03-31T12:26:55Z</time>
      </trkpt>
      <trkpt lat="47.2567" lon="-1.56214">
        <ele>15</ele>
        <time>2024-03-31T12:27:11Z</time>
      </trkpt>
      <trkpt lat="47.25661" lon="-1.56244">
        <ele>13.02</ele>
        <time>2024-03-31T12:27:27Z</time>
      </trkpt>
      <trkpt lat="47.25658" lon="-1.56277">
        <ele>14.98</ele>
        <time>2024-03-31T12:27:43Z</time>
      </trkpt>
      <trkpt lat="47.25649" lon="-1.56304">
        <ele>15</ele>
        <time>2024-03-31T12:27:59Z</time>
      </trkpt>
      <trkpt lat="47.25637" lon="-1.5633">
        <ele>15</ele>
        <time>2024-03-31T12:28:15Z</time>
      </trkpt>
      <trkpt lat="47.25625" lon="-1.56356">
        <ele>19.96</ele>
        <time>2024-03-31T12:28:31Z</time>
      </trkpt>
      <trkpt lat="47.25616" lon="-1.5638">
        <ele>20</ele>
        <time>2024-03-31T12:28:47Z</time>
      </trkpt>
      <trkpt lat="47.25604" lon="-1.56406">
        <ele>20</ele>
        <time>2024-03-31T12:29:03Z</time>
      </trkpt>
      <trkpt lat="47.25593" lon="-1.56434">
        <ele>20.97</ele>
        <time>2024-03-31T12:29:19Z</time>
      </trkpt>
      <trkpt lat="47.25588" lon="-1.56461">
        <ele>21</ele>
        <time>2024-03-31T12:29:35Z</time>
      </trkpt>
      <trkpt lat="47.25583" lon="-1.56491">
        <ele>19.6</ele>
        <time>2024-03-31T12:29:51Z</time>
      </trkpt>
      <trkpt lat="47.25565" lon="-1.5649">
        <ele>19</ele>
        <time>2024-03-31T12:30:07Z</time>
      </trkpt>
      <trkpt lat="47.25545" lon="-1.56478">
        <ele>19</ele>
        <time>2024-03-31T12:30:23Z</time>
      </trkpt>
      <trkpt lat="47.25536" lon="-1.56449">
        <ele>19</ele>
        <time>2024-03-31T12:30:39Z</time>
      </trkpt>
      <trkpt lat="47.25531" lon="-1.56419">
        <ele>19</ele>
        <time>2024-03-31T12:30:55Z</time>
      </trkpt>
      <trkpt lat="47.25522" lon="-1.56394">
        <ele>19.99</ele>
        <time>2024-03-31T12:31:11Z</time>
      </trkpt>
      <trkpt lat="47.25515" lon="-1.56369">
        <ele>20</ele>
        <time>2024-03-31T12:31:27Z</time>
      </trkpt>
      <trkpt lat="47.25497" lon="-1.56363">
        <ele>23.5</ele>
        <time>2024-03-31T12:31:43Z</time>
      </trkpt>
      <trkpt lat="47.25476" lon="-1.56374">
        <ele>24.99</ele>
        <time>2024-03-31T12:31:59Z</time>
      </trkpt>
      <trkpt lat="47.25456" lon="-1.56386">
        <ele>25</ele>
        <time>2024-03-31T12:32:15Z</time>
      </trkpt>
      <trkpt lat="47.25436" lon="-1.56398">
        <ele>25</ele>
        <time>2024-03-31T12:32:31Z</time>
      </trkpt>
      <trkpt lat="47.25416" lon="-1.56412">
        <ele>25.7</ele>
        <time>2024-03-31T12:32:47Z</time>
      </trkpt>
      <trkpt lat="47.25399" lon="-1.56396">
        <ele>26</ele>
        <time>2024-03-31T12:33:03Z</time>
      </trkpt>
      <trkpt lat="47.25379" lon="-1.56404">
        <ele>26</ele>
        <time>2024-03-31T12:33:19Z</time>
      </trkpt>
      <trkpt lat="47.25358" lon="-1.56407">
        <ele>26</ele>
        <time>2024-03-31T12:33:35Z</time>
      </trkpt>
      <trkpt lat="47.25336" lon="-1.564">
        <ele>26</ele>
        <time>2024-03-31T12:33:51Z</time>
      </trkpt>
      <trkpt lat="47.25314" lon="-1.56395">
        <ele>26.99</ele>
        <time>2024-03-31T12:34:07Z</time>
      </trkpt>
      <trkpt lat="47.25292" lon="-1.56384">
        <ele>27</ele>
        <time>2024-03-31T12:34:24Z</time>
      </trkpt>
      <trkpt lat="47.25271" lon="-1.56377">
        <ele>27</ele>
        <time>2024-03-31T12:34:40Z</time>
      </trkpt>
      <trkpt lat="47.25249" lon="-1.5638">
        <ele>26.3</ele>
        <time>2024-03-31T12:34:56Z</time>
      </trkpt>
      <trkpt lat="47.25227" lon="-1.5638">
        <ele>26</ele>
        <time>2024-03-31T12:35:12Z</time>
      </trkpt>
      <trkpt lat="47.25207" lon="-1.56377">
        <ele>26</ele>
        <time>2024-03-31T12:35:28Z</time>
      </trkpt>
      <trkpt lat="47.25188" lon="-1.56367">
        <ele>26</ele>
        <time>2024-03-31T12:35:48Z</time>
      </trkpt>
      <trkpt lat="47.25177" lon="-1.56394">
        <ele>26</ele>
        <time>2024-03-31T12:36:08Z</time>
      </trkpt>
      <trkpt lat="47.25176" lon="-1.56423">
        <ele>27.82</ele>
        <time>2024-03-31T12:36:24Z</time>
      </trkpt>
      <trkpt lat="47.25173" lon="-1.56453">
        <ele>28</ele>
        <time>2024-03-31T12:36:40Z</time>
      </trkpt>
      <trkpt lat="47.25171" lon="-1.56488">
        <ele>28</ele>
        <time>2024-03-31T12:36:56Z</time>
      </trkpt>
      <trkpt lat="47.2517" lon="-1.56518">
        <ele>29.95</ele>
        <time>2024-03-31T12:37:13Z</time>
      </trkpt>
      <trkpt lat="47.25166" lon="-1.56546">
        <ele>32.73</ele>
        <time>2024-03-31T12:37:29Z</time>
      </trkpt>
      <trkpt lat="47.25163" lon="-1.56573">
        <ele>32.99</ele>
        <time>2024-03-31T12:37:41Z</time>
      </trkpt>
      <trkpt lat="47.25157" lon="-1.56599">
        <ele>34.82</ele>
        <time>2024-03-31T12:37:53Z</time>
      </trkpt>
      <trkpt lat="47.25152" lon="-1.56627">
        <ele>35</ele>
        <time>2024-03-31T12:38:09Z</time>
      </trkpt>
      <trkpt lat="47.2514" lon="-1.56655">
        <ele>35</ele>
        <time>2024-03-31T12:38:25Z</time>
      </trkpt>
      <trkpt lat="47.25124" lon="-1.5668">
        <ele>32.08</ele>
        <time>2024-03-31T12:38:45Z</time>
      </trkpt>
      <trkpt lat="47.25113" lon="-1.56707">
        <ele>32</ele>
        <time>2024-03-31T12:39:01Z</time>
      </trkpt>
      <trkpt lat="47.25096" lon="-1.56728">
        <ele>32</ele>
        <time>2024-03-31T12:39:17Z</time>
      </trkpt>
      <trkpt lat="47.25077" lon="-1.56747">
        <ele>39.28</ele>
        <time>2024-03-31T12:39:33Z</time>
      </trkpt>
      <trkpt lat="47.2506" lon="-1.56765">
        <ele>37.02</ele>
        <time>2024-03-31T12:39:49Z</time>
      </trkpt>
      <trkpt lat="47.25042" lon="-1.56781">
        <ele>37</ele>
        <time>2024-03-31T12:40:05Z</time>
      </trkpt>
      <trkpt lat="47.25022" lon="-1.56798">
        <ele>37</ele>
        <time>2024-03-31T12:40:21Z</time>
      </trkpt>
      <trkpt lat="47.24999" lon="-1.56805">
        <ele>37.7</ele>
        <time>2024-03-31T12:40:37Z</time>
      </trkpt>
      <trkpt lat="47.2498" lon="-1.56816">
        <ele>38</ele>
        <time>2024-03-31T12:40:53Z</time>
      </trkpt>
      <trkpt lat="47.24961" lon="-1.56819">
        <ele>38</ele>
        <time>2024-03-31T12:41:05Z</time>
      </trkpt>
      <trkpt lat="47.24941" lon="-1.56818">
        <ele>38</ele>
        <time>2024-03-31T12:41:21Z</time>
      </trkpt>
      <trkpt lat="47.2492" lon="-1.56817">
        <ele>38</ele>
        <time>2024-03-31T12:41:37Z</time>
      </trkpt>
      <trkpt lat="47.24898" lon="-1.56817">
        <ele>36.02</ele>
        <time>2024-03-31T12:41:53Z</time>
      </trkpt>
      <trkpt lat="47.24876" lon="-1.56815">
        <ele>36</ele>
        <time>2024-03-31T12:42:09Z</time>
      </trkpt>
      <trkpt lat="47.24854" lon="-1.56813">
        <ele>36</ele>
        <time>2024-03-31T12:42:25Z</time>
      </trkpt>
      <trkpt lat="47.24833" lon="-1.5681">
        <ele>33.2</ele>
        <time>2024-03-31T12:42:41Z</time>
      </trkpt>
      <trkpt lat="47.24812" lon="-1.56801">
        <ele>32.01</ele>
        <time>2024-03-31T12:42:57Z</time>
      </trkpt>
      <trkpt lat="47.24791" lon="-1.56793">
        <ele>32</ele>
        <time>2024-03-31T12:43:13Z</time>
      </trkpt>
      <trkpt lat="47.2477" lon="-1.56787">
        <ele>32</ele>
        <time>2024-03-31T12:43:29Z</time>
      </trkpt>
      <trkpt lat="47.2475" lon="-1.56771">
        <ele>32</ele>
        <time>2024-03-31T12:43:45Z</time>
      </trkpt>
      <trkpt lat="47.24729" lon="-1.56776">
        <ele>30</ele>
        <time>2024-03-31T12:44:05Z</time>
      </trkpt>
      <trkpt lat="47.24715" lon="-1.56794">
        <ele>30</ele>
        <time>2024-03-31T12:44:21Z</time>
      </trkpt>
      <trkpt lat="47.2471" lon="-1.56824">
        <ele>30</ele>
        <time>2024-03-31T12:44:37Z</time>
      </trkpt>
      <trkpt lat="47.24706" lon="-1.56856">
        <ele>31.95</ele>
        <time>2024-03-31T12:44:53Z</time>
      </trkpt>
      <trkpt lat="47.24702" lon="-1.56886">
        <ele>32</ele>
        <time>2024-03-31T12:45:09Z</time>
      </trkpt>
      <trkpt lat="47.247" lon="-1.56921">
        <ele>32</ele>
        <time>2024-03-31T12:45:25Z</time>
      </trkpt>
      <trkpt lat="47.24696" lon="-1.56954">
        <ele>32</ele>
        <time>2024-03-31T12:45:41Z</time>
      </trkpt>
      <trkpt lat="47.24694" lon="-1.56987">
        <ele>32</ele>
        <time>2024-03-31T12:45:57Z</time>
      </trkpt>
      <trkpt lat="47.24686" lon="-1.57012">
        <ele>32.91</ele>
        <time>2024-03-31T12:46:09Z</time>
      </trkpt>
      <trkpt lat="47.24672" lon="-1.57031">
        <ele>33</ele>
        <time>2024-03-31T12:46:25Z</time>
      </trkpt>
      <trkpt lat="47.24651" lon="-1.57039">
        <ele>29.11</ele>
        <time>2024-03-31T12:46:45Z</time>
      </trkpt>
      <trkpt lat="47.24633" lon="-1.57054">
        <ele>29</ele>
        <time>2024-03-31T12:47:01Z</time>
      </trkpt>
      <trkpt lat="47.24616" lon="-1.57069">
        <ele>29</ele>
        <time>2024-03-31T12:47:17Z</time>
      </trkpt>
      <trkpt lat="47.24607" lon="-1.57093">
        <ele>29</ele>
        <time>2024-03-31T12:47:33Z</time>
      </trkpt>
      <trkpt lat="47.24587" lon="-1.57112">
        <ele>29</ele>
        <time>2024-03-31T12:48:26Z</time>
      </trkpt>
      <trkpt lat="47.24571" lon="-1.57133">
        <ele>23.05</ele>
        <time>2024-03-31T12:48:42Z</time>
      </trkpt>
      <trkpt lat="47.24567" lon="-1.57162">
        <ele>23</ele>
        <time>2024-03-31T12:48:58Z</time>
      </trkpt>
      <trkpt lat="47.24555" lon="-1.57192">
        <ele>23.99</ele>
        <time>2024-03-31T12:49:14Z</time>
      </trkpt>
      <trkpt lat="47.24551" lon="-1.5722">
        <ele>24</ele>
        <time>2024-03-31T12:49:26Z</time>
      </trkpt>
      <trkpt lat="47.24542" lon="-1.57247">
        <ele>24</ele>
        <time>2024-03-31T12:49:42Z</time>
      </trkpt>
      <trkpt lat="47.24538" lon="-1.57273">
        <ele>23.03</ele>
        <time>2024-03-31T12:49:54Z</time>
      </trkpt>
      <trkpt lat="47.24543" lon="-1.57306">
        <ele>23</ele>
        <time>2024-03-31T12:50:10Z</time>
      </trkpt>
      <trkpt lat="47.24543" lon="-1.57339">
        <ele>20.2</ele>
        <time>2024-03-31T12:50:26Z</time>
      </trkpt>
      <trkpt lat="47.24546" lon="-1.57372">
        <ele>19.01</ele>
        <time>2024-03-31T12:50:42Z</time>
      </trkpt>
      <trkpt lat="47.24552" lon="-1.574">
        <ele>19</ele>
        <time>2024-03-31T12:50:58Z</time>
      </trkpt>
      <trkpt lat="47.24558" lon="-1.57435">
        <ele>15.36</ele>
        <time>2024-03-31T12:51:14Z</time>
      </trkpt>
      <trkpt lat="47.24572" lon="-1.57461">
        <ele>15</ele>
        <time>2024-03-31T12:51:30Z</time>
      </trkpt>
      <trkpt lat="47.24582" lon="-1.57486">
        <ele>15</ele>
        <time>2024-03-31T12:51:46Z</time>
      </trkpt>
      <trkpt lat="47.246" lon="-1.57497">
        <ele>18.89</ele>
        <time>2024-03-31T12:51:58Z</time>
      </trkpt>
      <trkpt lat="47.24618" lon="-1.57517">
        <ele>13.05</ele>
        <time>2024-03-31T12:52:14Z</time>
      </trkpt>
      <trkpt lat="47.24632" lon="-1.57537">
        <ele>13</ele>
        <time>2024-03-31T12:52:27Z</time>
      </trkpt>
      <trkpt lat="47.24652" lon="-1.57555">
        <ele>13</ele>
        <time>2024-03-31T12:52:43Z</time>
      </trkpt>
      <trkpt lat="47.24666" lon="-1.57576">
        <ele>13</ele>
        <time>2024-03-31T12:52:55Z</time>
      </trkpt>
      <trkpt lat="47.24675" lon="-1.57601">
        <ele>13.08</ele>
        <time>2024-03-31T12:53:11Z</time>
      </trkpt>
      <trkpt lat="47.24684" lon="-1.57625">
        <ele>13</ele>
        <time>2024-03-31T12:53:23Z</time>
      </trkpt>
      <trkpt lat="47.24667" lon="-1.57637">
        <ele>13</ele>
        <time>2024-03-31T12:53:39Z</time>
      </trkpt>
      <trkpt lat="47.24651" lon="-1.57623">
        <ele>11.05</ele>
        <time>2024-03-31T12:53:51Z</time>
      </trkpt>
      <trkpt lat="47.24632" lon="-1.57608">
        <ele>11</ele>
        <time>2024-03-31T12:54:07Z</time>
      </trkpt>
      <trkpt lat="47.24615" lon="-1.57585">
        <ele>11</ele>
        <time>2024-03-31T12:54:23Z</time>
      </trkpt>
      <trkpt lat="47.246" lon="-1.57569">
        <ele>12.98</ele>
        <time>2024-03-31T12:54:39Z</time>
      </trkpt>
      <trkpt lat="47.24583" lon="-1.5755">
        <ele>15.1</ele>
        <time>2024-03-31T12:54:55Z</time>
      </trkpt>
      <trkpt lat="47.24566" lon="-1.57538">
        <ele>15.99</ele>
        <time>2024-03-31T12:55:11Z</time>
      </trkpt>
      <trkpt lat="47.24545" lon="-1.57526">
        <ele>16</ele>
        <time>2024-03-31T12:55:27Z</time>
      </trkpt>
      <trkpt lat="47.24531" lon="-1.575">
        <ele>16</ele>
        <time>2024-03-31T12:55:43Z</time>
      </trkpt>
      <trkpt lat="47.24523" lon="-1.57475">
        <ele>15.03</ele>
        <time>2024-03-31T12:55:55Z</time>
      </trkpt>
      <trkpt lat="47.24512" lon="-1.57445">
        <ele>15</ele>
        <time>2024-03-31T12:56:11Z</time>
      </trkpt>
      <trkpt lat="47.24509" lon="-1.57409">
        <ele>17.8</ele>
        <time>2024-03-31T12:56:27Z</time>
      </trkpt>
      <trkpt lat="47.24508" lon="-1.5738">
        <ele>18.99</ele>
        <time>2024-03-31T12:56:43Z</time>
      </trkpt>
      <trkpt lat="47.24503" lon="-1.57348">
        <ele>19</ele>
        <time>2024-03-31T12:56:59Z</time>
      </trkpt>
      <trkpt lat="47.2449" lon="-1.57322">
        <ele>16.02</ele>
        <time>2024-03-31T12:57:19Z</time>
      </trkpt>
      <trkpt lat="47.24479" lon="-1.57295">
        <ele>16</ele>
        <time>2024-03-31T12:57:35Z</time>
      </trkpt>
      <trkpt lat="47.24475" lon="-1.57259">
        <ele>16</ele>
        <time>2024-03-31T12:57:51Z</time>
      </trkpt>
      <trkpt lat="47.24471" lon="-1.57232">
        <ele>16.91</ele>
        <time>2024-03-31T12:58:03Z</time>
      </trkpt>
      <trkpt lat="47.24474" lon="-1.57201">
        <ele>17</ele>
        <time>2024-03-31T12:58:19Z</time>
      </trkpt>
      <trkpt lat="47.24482" lon="-1.57169">
        <ele>17</ele>
        <time>2024-03-31T12:58:35Z</time>
      </trkpt>
      <trkpt lat="47.24487" lon="-1.57139">
        <ele>15.02</ele>
        <time>2024-03-31T12:58:51Z</time>
      </trkpt>
      <trkpt lat="47.2449" lon="-1.57111">
        <ele>15</ele>
        <time>2024-03-31T12:59:07Z</time>
      </trkpt>
      <trkpt lat="47.24481" lon="-1.57087">
        <ele>15</ele>
        <time>2024-03-31T12:59:19Z</time>
      </trkpt>
      <trkpt lat="47.24468" lon="-1.57061">
        <ele>15.99</ele>
        <time>2024-03-31T12:59:35Z</time>
      </trkpt>
      <trkpt lat="47.24455" lon="-1.5704">
        <ele>16</ele>
        <time>2024-03-31T12:59:51Z</time>
      </trkpt>
      <trkpt lat="47.24441" lon="-1.57018">
        <ele>16</ele>
        <time>2024-03-31T13:00:07Z</time>
      </trkpt>
      <trkpt lat="47.24428" lon="-1.56992">
        <ele>18.73</ele>
        <time>2024-03-31T13:00:23Z</time>
      </trkpt>
      <trkpt lat="47.24414" lon="-1.56968">
        <ele>14.8</ele>
        <time>2024-03-31T13:00:39Z</time>
      </trkpt>
      <trkpt lat="47.24399" lon="-1.56944">
        <ele>13.01</ele>
        <time>2024-03-31T13:00:55Z</time>
      </trkpt>
      <trkpt lat="47.24391" lon="-1.56914">
        <ele>12.3</ele>
        <time>2024-03-31T13:01:11Z</time>
      </trkpt>
      <trkpt lat="47.24373" lon="-1.56897">
        <ele>12</ele>
        <time>2024-03-31T13:02:07Z</time>
      </trkpt>
      <trkpt lat="47.24365" lon="-1.56872">
        <ele>12</ele>
        <time>2024-03-31T13:02:27Z</time>
      </trkpt>
      <trkpt lat="47.2436" lon="-1.56841">
        <ele>12</ele>
        <time>2024-03-31T13:02:43Z</time>
      </trkpt>
      <trkpt lat="47.24358" lon="-1.56814">
        <ele>14.92</ele>
        <time>2024-03-31T13:02:59Z</time>
      </trkpt>
      <trkpt lat="47.24352" lon="-1.56785">
        <ele>15</ele>
        <time>2024-03-31T13:03:15Z</time>
      </trkpt>
      <trkpt lat="47.24347" lon="-1.56753">
        <ele>15</ele>
        <time>2024-03-31T13:03:31Z</time>
      </trkpt>
      <trkpt lat="47.24341" lon="-1.56723">
        <ele>15</ele>
        <time>2024-03-31T13:03:47Z</time>
      </trkpt>
      <trkpt lat="47.24336" lon="-1.56691">
        <ele>15</ele>
        <time>2024-03-31T13:04:03Z</time>
      </trkpt>
      <trkpt lat="47.24329" lon="-1.56661">
        <ele>22.28</ele>
        <time>2024-03-31T13:04:19Z</time>
      </trkpt>
      <trkpt lat="47.24331" lon="-1.56632">
        <ele>22.99</ele>
        <time>2024-03-31T13:04:35Z</time>
      </trkpt>
      <trkpt lat="47.24324" lon="-1.56606">
        <ele>23</ele>
        <time>2024-03-31T13:04:51Z</time>
      </trkpt>
      <trkpt lat="47.24324" lon="-1.56578">
        <ele>23.7</ele>
        <time>2024-03-31T13:05:03Z</time>
      </trkpt>
      <trkpt lat="47.24323" lon="-1.5655">
        <ele>24</ele>
        <time>2024-03-31T13:05:19Z</time>
      </trkpt>
      <trkpt lat="47.24336" lon="-1.5652">
        <ele>18.4</ele>
        <time>2024-03-31T13:05:35Z</time>
      </trkpt>
      <trkpt lat="47.24346" lon="-1.56492">
        <ele>16.02</ele>
        <time>2024-03-31T13:05:51Z</time>
      </trkpt>
      <trkpt lat="47.24344" lon="-1.56465">
        <ele>16</ele>
        <time>2024-03-31T13:06:07Z</time>
      </trkpt>
      <trkpt lat="47.2435" lon="-1.56433">
        <ele>16</ele>
        <time>2024-03-31T13:06:23Z</time>
      </trkpt>
      <trkpt lat="47.24361" lon="-1.56405">
        <ele>16.91</ele>
        <time>2024-03-31T13:06:39Z</time>
      </trkpt>
      <trkpt lat="47.24363" lon="-1.56375">
        <ele>17</ele>
        <time>2024-03-31T13:06:59Z</time>
      </trkpt>
      <trkpt lat="47.24361" lon="-1.56344">
        <ele>17</ele>
        <time>2024-03-31T13:07:15Z</time>
      </trkpt>
      <trkpt lat="47.24368" lon="-1.56315">
        <ele>16.03</ele>
        <time>2024-03-31T13:07:32Z</time>
      </trkpt>
      <trkpt lat="47.24373" lon="-1.56285">
        <ele>16</ele>
        <time>2024-03-31T13:07:48Z</time>
      </trkpt>
      <trkpt lat="47.24378" lon="-1.56254">
        <ele>16</ele>
        <time>2024-03-31T13:08:04Z</time>
      </trkpt>
      <trkpt lat="47.24369" lon="-1.56224">
        <ele>16</ele>
        <time>2024-03-31T13:08:20Z</time>
      </trkpt>
      <trkpt lat="47.24352" lon="-1.56203">
        <ele>16</ele>
        <time>2024-03-31T13:08:36Z</time>
      </trkpt>
      <trkpt lat="47.24338" lon="-1.56179">
        <ele>16</ele>
        <time>2024-03-31T13:08:52Z</time>
      </trkpt>
      <trkpt lat="47.24323" lon="-1.56157">
        <ele>18.39</ele>
        <time>2024-03-31T13:09:08Z</time>
      </trkpt>
      <trkpt lat="47.24308" lon="-1.56138">
        <ele>18</ele>
        <time>2024-03-31T13:09:24Z</time>
      </trkpt>
      <trkpt lat="47.24296" lon="-1.5612">
        <ele>18</ele>
        <time>2024-03-31T13:09:40Z</time>
      </trkpt>
      <trkpt lat="47.24279" lon="-1.56096">
        <ele>18</ele>
        <time>2024-03-31T13:09:56Z</time>
      </trkpt>
      <trkpt lat="47.2427" lon="-1.56069">
        <ele>13.14</ele>
        <time>2024-03-31T13:10:12Z</time>
      </trkpt>
      <trkpt lat="47.24266" lon="-1.5604">
        <ele>13</ele>
        <time>2024-03-31T13:10:28Z</time>
      </trkpt>
      <trkpt lat="47.24264" lon="-1.56012">
        <ele>13</ele>
        <time>2024-03-31T13:10:48Z</time>
      </trkpt>
      <trkpt lat="47.24255" lon="-1.55985">
        <ele>15.73</ele>
        <time>2024-03-31T13:11:04Z</time>
      </trkpt>
      <trkpt lat="47.24252" lon="-1.55953">
        <ele>16</ele>
        <time>2024-03-31T13:11:24Z</time>
      </trkpt>
      <trkpt lat="47.24251" lon="-1.55925">
        <ele>16</ele>
        <time>2024-03-31T13:11:36Z</time>
      </trkpt>
      <trkpt lat="47.24248" lon="-1.55899">
        <ele>10.14</ele>
        <time>2024-03-31T13:11:52Z</time>
      </trkpt>
      <trkpt lat="47.24249" lon="-1.55872">
        <ele>10</ele>
        <time>2024-03-31T13:12:04Z</time>
      </trkpt>
      <trkpt lat="47.24243" lon="-1.55843">
        <ele>10</ele>
        <time>2024-03-31T13:12:20Z</time>
      </trkpt>
      <trkpt lat="47.24239" lon="-1.55809">
        <ele>10</ele>
        <time>2024-03-31T13:12:36Z</time>
      </trkpt>
      <trkpt lat="47.24238" lon="-1.55778">
        <ele>10</ele>
        <time>2024-03-31T13:12:52Z</time>
      </trkpt>
      <trkpt lat="47.24232" lon="-1.55753">
        <ele>10</ele>
        <time>2024-03-31T13:13:04Z</time>
      </trkpt>
      <trkpt lat="47.24224" lon="-1.55722">
        <ele>10</ele>
        <time>2024-03-31T13:13:20Z</time>
      </trkpt>
      <trkpt lat="47.24227" lon="-1.55692">
        <ele>10</ele>
        <time>2024-03-31T13:13:36Z</time>
      </trkpt>
      <trkpt lat="47.24224" lon="-1.55662">
        <ele>11.4</ele>
        <time>2024-03-31T13:13:52Z</time>
      </trkpt>
      <trkpt lat="47.24215" lon="-1.55635">
        <ele>12</ele>
        <time>2024-03-31T13:14:08Z</time>
      </trkpt>
      <trkpt lat="47.24194" lon="-1.5563">
        <ele>12</ele>
        <time>2024-03-31T13:14:32Z</time>
      </trkpt>
      <trkpt lat="47.24174" lon="-1.55637">
        <ele>12</ele>
        <time>2024-03-31T13:14:48Z</time>
      </trkpt>
      <trkpt lat="47.24154" lon="-1.55636">
        <ele>13.95</ele>
        <time>2024-03-31T13:15:04Z</time>
      </trkpt>
      <trkpt lat="47.24135" lon="-1.55637">
        <ele>14</ele>
        <time>2024-03-31T13:15:20Z</time>
      </trkpt>
      <trkpt lat="47.24116" lon="-1.55642">
        <ele>14</ele>
        <time>2024-03-31T13:15:36Z</time>
      </trkpt>
      <trkpt lat="47.24097" lon="-1.55649">
        <ele>14</ele>
        <time>2024-03-31T13:15:48Z</time>
      </trkpt>
      <trkpt lat="47.24076" lon="-1.55642">
        <ele>15.82</ele>
        <time>2024-03-31T13:16:00Z</time>
      </trkpt>
      <trkpt lat="47.24067" lon="-1.55616">
        <ele>16</ele>
        <time>2024-03-31T13:16:20Z</time>
      </trkpt>
      <trkpt lat="47.2405" lon="-1.55597">
        <ele>16</ele>
        <time>2024-03-31T13:16:56Z</time>
      </trkpt>
      <trkpt lat="47.24034" lon="-1.55579">
        <ele>16</ele>
        <time>2024-03-31T13:17:12Z</time>
      </trkpt>
      <trkpt lat="47.24016" lon="-1.5556">
        <ele>16</ele>
        <time>2024-03-31T13:17:32Z</time>
      </trkpt>
      <trkpt lat="47.23998" lon="-1.55542">
        <ele>18.1</ele>
        <time>2024-03-31T13:17:53Z</time>
      </trkpt>
      <trkpt lat="47.2398" lon="-1.55521">
        <ele>18.99</ele>
        <time>2024-03-31T13:18:10Z</time>
      </trkpt>
      <trkpt lat="47.23963" lon="-1.55503">
        <ele>19</ele>
        <time>2024-03-31T13:18:26Z</time>
      </trkpt>
      <trkpt lat="47.23947" lon="-1.55479">
        <ele>18.01</ele>
        <time>2024-03-31T13:18:42Z</time>
      </trkpt>
      <trkpt lat="47.23944" lon="-1.55447">
        <ele>18</ele>
        <time>2024-03-31T13:18:55Z</time>
      </trkpt>
      <trkpt lat="47.23938" lon="-1.55417">
        <ele>18</ele>
        <time>2024-03-31T13:19:15Z</time>
      </trkpt>
      <trkpt lat="47.23925" lon="-1.55393">
        <ele>16.02</ele>
        <time>2024-03-31T13:19:32Z</time>
      </trkpt>
      <trkpt lat="47.23908" lon="-1.55369">
        <ele>15.09</ele>
        <time>2024-03-31T13:19:48Z</time>
      </trkpt>
      <trkpt lat="47.23895" lon="-1.55351">
        <ele>15</ele>
        <time>2024-03-31T13:20:00Z</time>
      </trkpt>
      <trkpt lat="47.23878" lon="-1.5533">
        <ele>15</ele>
        <time>2024-03-31T13:20:16Z</time>
      </trkpt>
      <trkpt lat="47.23867" lon="-1.5531">
        <ele>15</ele>
        <time>2024-03-31T13:20:28Z</time>
      </trkpt>
      <trkpt lat="47.23851" lon="-1.55286">
        <ele>15</ele>
        <time>2024-03-31T13:20:44Z</time>
      </trkpt>
      <trkpt lat="47.23842" lon="-1.55261">
        <ele>15</ele>
        <time>2024-03-31T13:20:56Z</time>
      </trkpt>
      <trkpt lat="47.23831" lon="-1.55232">
        <ele>17.49</ele>
        <time>2024-03-31T13:21:12Z</time>
      </trkpt>
      <trkpt lat="47.23823" lon="-1.55209">
        <ele>17.01</ele>
        <time>2024-03-31T13:21:24Z</time>
      </trkpt>
      <trkpt lat="47.23808" lon="-1.5519">
        <ele>17</ele>
        <time>2024-03-31T13:21:40Z</time>
      </trkpt>
      <trkpt lat="47.23789" lon="-1.55177">
        <ele>17</ele>
        <time>2024-03-31T13:21:56Z</time>
      </trkpt>
      <trkpt lat="47.23769" lon="-1.55167">
        <ele>16.37</ele>
        <time>2024-03-31T13:22:12Z</time>
      </trkpt>
      <trkpt lat="47.23748" lon="-1.55161">
        <ele>14.02</ele>
        <time>2024-03-31T13:22:28Z</time>
      </trkpt>
      <trkpt lat="47.23726" lon="-1.55151">
        <ele>14</ele>
        <time>2024-03-31T13:22:44Z</time>
      </trkpt>
      <trkpt lat="47.23718" lon="-1.5512">
        <ele>14</ele>
        <time>2024-03-31T13:23:00Z</time>
      </trkpt>
      <trkpt lat="47.23706" lon="-1.55089">
        <ele>14</ele>
        <time>2024-03-31T13:23:16Z</time>
      </trkpt>
      <trkpt lat="47.23686" lon="-1.55074">
        <ele>9.01</ele>
        <time>2024-03-31T13:23:36Z</time>
      </trkpt>
      <trkpt lat="47.23665" lon="-1.55059">
        <ele>7.6</ele>
        <time>2024-03-31T13:23:52Z</time>
      </trkpt>
      <trkpt lat="47.23644" lon="-1.55049">
        <ele>7</ele>
        <time>2024-03-31T13:24:08Z</time>
      </trkpt>
      <trkpt lat="47.23625" lon="-1.55041">
        <ele>7</ele>
        <time>2024-03-31T13:24:24Z</time>
      </trkpt>
      <trkpt lat="47.23608" lon="-1.55029">
        <ele>7</ele>
        <time>2024-03-31T13:24:36Z</time>
      </trkpt>
      <trkpt lat="47.23592" lon="-1.55005">
        <ele>7</ele>
        <time>2024-03-31T13:24:52Z</time>
      </trkpt>
      <trkpt lat="47.23577" lon="-1.54979">
        <ele>9.6</ele>
        <time>2024-03-31T13:25:08Z</time>
      </trkpt>
      <trkpt lat="47.23561" lon="-1.54958">
        <ele>10</ele>
        <time>2024-03-31T13:25:32Z</time>
      </trkpt>
      <trkpt lat="47.2354" lon="-1.54954">
        <ele>10</ele>
        <time>2024-03-31T13:25:48Z</time>
      </trkpt>
      <trkpt lat="47.23531" lon="-1.54926">
        <ele>10</ele>
        <time>2024-03-31T13:26:08Z</time>
      </trkpt>
      <trkpt lat="47.23534" lon="-1.54896">
        <ele>8.05</ele>
        <time>2024-03-31T13:26:24Z</time>
      </trkpt>
      <trkpt lat="47.23539" lon="-1.54865">
        <ele>8</ele>
        <time>2024-03-31T13:26:40Z</time>
      </trkpt>
      <trkpt lat="47.23542" lon="-1.54838">
        <ele>8</ele>
        <time>2024-03-31T13:26:52Z</time>
      </trkpt>
      <trkpt lat="47.23544" lon="-1.54807">
        <ele>7.01</ele>
        <time>2024-03-31T13:27:08Z</time>
      </trkpt>
      <trkpt lat="47.23546" lon="-1.54775">
        <ele>7</ele>
        <time>2024-03-31T13:27:24Z</time>
      </trkpt>
      <trkpt lat="47.23557" lon="-1.54799">
        <ele>7</ele>
        <time>2024-03-31T13:27:49Z</time>
      </trkpt>
      <trkpt lat="47.23562" lon="-1.54827">
        <ele>7</ele>
        <time>2024-03-31T13:28:05Z</time>
      </trkpt>
      <trkpt lat="47.2358" lon="-1.54826">
        <ele>7</ele>
        <time>2024-03-31T13:28:21Z</time>
      </trkpt>
      <trkpt lat="47.23603" lon="-1.54831">
        <ele>8.98</ele>
        <time>2024-03-31T13:28:37Z</time>
      </trkpt>
      <trkpt lat="47.23624" lon="-1.54837">
        <ele>6.9</ele>
        <time>2024-03-31T13:28:49Z</time>
      </trkpt>
      <trkpt lat="47.23637" lon="-1.54857">
        <ele>6.01</ele>
        <time>2024-03-31T13:29:05Z</time>
      </trkpt>
      <trkpt lat="47.23655" lon="-1.54875">
        <ele>6</ele>
        <time>2024-03-31T13:29:21Z</time>
      </trkpt>
      <trkpt lat="47.23667" lon="-1.54895">
        <ele>7.4</ele>
        <time>2024-03-31T13:29:37Z</time>
      </trkpt>
      <trkpt lat="47.23683" lon="-1.54919">
        <ele>7.3</ele>
        <time>2024-03-31T13:29:53Z</time>
      </trkpt>
      <trkpt lat="47.237" lon="-1.54929">
        <ele>7</ele>
        <time>2024-03-31T13:30:09Z</time>
      </trkpt>
      <trkpt lat="47.23718" lon="-1.54934">
        <ele>7</ele>
        <time>2024-03-31T13:30:21Z</time>
      </trkpt>
      <trkpt lat="47.2374" lon="-1.5493">
        <ele>7</ele>
        <time>2024-03-31T13:30:37Z</time>
      </trkpt>
      <trkpt lat="47.23757" lon="-1.54913">
        <ele>9.31</ele>
        <time>2024-03-31T13:30:53Z</time>
      </trkpt>
      <trkpt lat="47.23775" lon="-1.54891">
        <ele>10</ele>
        <time>2024-03-31T13:31:13Z</time>
      </trkpt>
      <trkpt lat="47.23794" lon="-1.54893">
        <ele>10</ele>
        <time>2024-03-31T13:31:25Z</time>
      </trkpt>
      <trkpt lat="47.23812" lon="-1.54879">
        <ele>10</ele>
        <time>2024-03-31T13:31:41Z</time>
      </trkpt>
      <trkpt lat="47.23827" lon="-1.54863">
        <ele>10</ele>
        <time>2024-03-31T13:31:57Z</time>
      </trkpt>
      <trkpt lat="47.23846" lon="-1.54846">
        <ele>10</ele>
        <time>2024-03-31T13:32:17Z</time>
      </trkpt>
      <trkpt lat="47.23863" lon="-1.54829">
        <ele>8.18</ele>
        <time>2024-03-31T13:32:33Z</time>
      </trkpt>
      <trkpt lat="47.23881" lon="-1.54812">
        <ele>8</ele>
        <time>2024-03-31T13:32:49Z</time>
      </trkpt>
      <trkpt lat="47.23899" lon="-1.54812">
        <ele>8</ele>
        <time>2024-03-31T13:33:05Z</time>
      </trkpt>
      <trkpt lat="47.23917" lon="-1.54797">
        <ele>5.9</ele>
        <time>2024-03-31T13:33:21Z</time>
      </trkpt>
      <trkpt lat="47.23936" lon="-1.5478">
        <ele>5.01</ele>
        <time>2024-03-31T13:33:37Z</time>
      </trkpt>
      <trkpt lat="47.23957" lon="-1.54765">
        <ele>5</ele>
        <time>2024-03-31T13:33:57Z</time>
      </trkpt>
      <trkpt lat="47.23972" lon="-1.54745">
        <ele>4.3</ele>
        <time>2024-03-31T13:34:13Z</time>
      </trkpt>
      <trkpt lat="47.23987" lon="-1.54726">
        <ele>4</ele>
        <time>2024-03-31T13:34:29Z</time>
      </trkpt>
      <trkpt lat="47.24003" lon="-1.54712">
        <ele>6.73</ele>
        <time>2024-03-31T13:34:45Z</time>
      </trkpt>
      <trkpt lat="47.24022" lon="-1.54699">
        <ele>7</ele>
        <time>2024-03-31T13:35:01Z</time>
      </trkpt>
      <trkpt lat="47.24024" lon="-1.54668">
        <ele>7</ele>
        <time>2024-03-31T13:35:17Z</time>
      </trkpt>
      <trkpt lat="47.24044" lon="-1.54654">
        <ele>8.98</ele>
        <time>2024-03-31T13:35:33Z</time>
      </trkpt>
      <trkpt lat="47.24065" lon="-1.54643">
        <ele>9</ele>
        <time>2024-03-31T13:35:49Z</time>
      </trkpt>
      <trkpt lat="47.24085" lon="-1.54629">
        <ele>4.8</ele>
        <time>2024-03-31T13:36:05Z</time>
      </trkpt>
      <trkpt lat="47.24104" lon="-1.5462">
        <ele>3.01</ele>
        <time>2024-03-31T13:36:21Z</time>
      </trkpt>
      <trkpt lat="47.24123" lon="-1.5461">
        <ele>3</ele>
        <time>2024-03-31T13:36:37Z</time>
      </trkpt>
      <trkpt lat="47.24143" lon="-1.54605">
        <ele>3</ele>
        <time>2024-03-31T13:36:49Z</time>
      </trkpt>
      <trkpt lat="47.24164" lon="-1.54593">
        <ele>3</ele>
        <time>2024-03-31T13:37:05Z</time>
      </trkpt>
      <trkpt lat="47.24181" lon="-1.54586">
        <ele>3</ele>
        <time>2024-03-31T13:37:21Z</time>
      </trkpt>
      <trkpt lat="47.24201" lon="-1.5457">
        <ele>4.98</ele>
        <time>2024-03-31T13:37:37Z</time>
      </trkpt>
      <trkpt lat="47.24194" lon="-1.54544">
        <ele>5</ele>
        <time>2024-03-31T13:37:53Z</time>
      </trkpt>
      <trkpt lat="47.24188" lon="-1.54513">
        <ele>5</ele>
        <time>2024-03-31T13:38:09Z</time>
      </trkpt>
      <trkpt lat="47.24189" lon="-1.54481">
        <ele>5.97</ele>
        <time>2024-03-31T13:38:25Z</time>
      </trkpt>
      <trkpt lat="47.24202" lon="-1.54459">
        <ele>6</ele>
        <time>2024-03-31T13:38:37Z</time>
      </trkpt>
      <trkpt lat="47.24212" lon="-1.54436">
        <ele>6</ele>
        <time>2024-03-31T13:38:49Z</time>
      </trkpt>
      <trkpt lat="47.24218" lon="-1.54411">
        <ele>6.7</ele>
        <time>2024-03-31T13:39:05Z</time>
      </trkpt>
      <trkpt lat="47.24228" lon="-1.54382">
        <ele>7</ele>
        <time>2024-03-31T13:39:21Z</time>
      </trkpt>
      <trkpt lat="47.24236" lon="-1.54352">
        <ele>7</ele>
        <time>2024-03-31T13:39:37Z</time>
      </trkpt>
      <trkpt lat="47.24245" lon="-1.54329">
        <ele>9.1</ele>
        <time>2024-03-31T13:39:49Z</time>
      </trkpt>
      <trkpt lat="47.24265" lon="-1.54314">
        <ele>11.98</ele>
        <time>2024-03-31T13:40:09Z</time>
      </trkpt>
      <trkpt lat="47.24288" lon="-1.54312">
        <ele>12</ele>
        <time>2024-03-31T13:40:25Z</time>
      </trkpt>
      <trkpt lat="47.24304" lon="-1.54326">
        <ele>12</ele>
        <time>2024-03-31T13:40:37Z</time>
      </trkpt>
      <trkpt lat="47.24321" lon="-1.54351">
        <ele>10.05</ele>
        <time>2024-03-31T13:40:53Z</time>
      </trkpt>
      <trkpt lat="47.24338" lon="-1.54365">
        <ele>7.9</ele>
        <time>2024-03-31T13:41:09Z</time>
      </trkpt>
      <trkpt lat="47.24353" lon="-1.54385">
        <ele>7.02</ele>
        <time>2024-03-31T13:41:22Z</time>
      </trkpt>
      <trkpt lat="47.24368" lon="-1.54404">
        <ele>7</ele>
        <time>2024-03-31T13:41:34Z</time>
      </trkpt>
      <trkpt lat="47.24388" lon="-1.54405">
        <ele>7</ele>
        <time>2024-03-31T13:41:50Z</time>
      </trkpt>
      <trkpt lat="47.24408" lon="-1.5439">
        <ele>7</ele>
        <time>2024-03-31T13:42:10Z</time>
      </trkpt>
      <trkpt lat="47.24431" lon="-1.54384">
        <ele>5.05</ele>
        <time>2024-03-31T13:42:26Z</time>
      </trkpt>
      <trkpt lat="47.24449" lon="-1.54375">
        <ele>5</ele>
        <time>2024-03-31T13:42:38Z</time>
      </trkpt>
      <trkpt lat="47.2447" lon="-1.54368">
        <ele>5</ele>
        <time>2024-03-31T13:42:54Z</time>
      </trkpt>
      <trkpt lat="47.2449" lon="-1.54354">
        <ele>5</ele>
        <time>2024-03-31T13:43:10Z</time>
      </trkpt>
      <trkpt lat="47.2451" lon="-1.54348">
        <ele>5</ele>
        <time>2024-03-31T13:43:26Z</time>
      </trkpt>
      <trkpt lat="47.2453" lon="-1.54335">
        <ele>5</ele>
        <time>2024-03-31T13:43:42Z</time>
      </trkpt>
      <trkpt lat="47.2455" lon="-1.54328">
        <ele>6.82</ele>
        <time>2024-03-31T13:43:54Z</time>
      </trkpt>
      <trkpt lat="47.2457" lon="-1.54313">
        <ele>7</ele>
        <time>2024-03-31T13:44:10Z</time>
      </trkpt>
      <trkpt lat="47.24588" lon="-1.54301">
        <ele>7.7</ele>
        <time>2024-03-31T13:44:26Z</time>
      </trkpt>
      <trkpt lat="47.24608" lon="-1.54285">
        <ele>8</ele>
        <time>2024-03-31T13:44:42Z</time>
      </trkpt>
      <trkpt lat="47.24625" lon="-1.54262">
        <ele>8</ele>
        <time>2024-03-31T13:44:58Z</time>
      </trkpt>
      <trkpt lat="47.24642" lon="-1.54241">
        <ele>8.91</ele>
        <time>2024-03-31T13:45:14Z</time>
      </trkpt>
      <trkpt lat="47.2466" lon="-1.54235">
        <ele>9</ele>
        <time>2024-03-31T13:45:26Z</time>
      </trkpt>
      <trkpt lat="47.24679" lon="-1.54226">
        <ele>7.05</ele>
        <time>2024-03-31T13:45:42Z</time>
      </trkpt>
      <trkpt lat="47.24697" lon="-1.54219">
        <ele>7</ele>
        <time>2024-03-31T13:45:54Z</time>
      </trkpt>
      <trkpt lat="47.24717" lon="-1.54204">
        <ele>7</ele>
        <time>2024-03-31T13:46:10Z</time>
      </trkpt>
      <trkpt lat="47.24736" lon="-1.54193">
        <ele>7</ele>
        <time>2024-03-31T13:46:26Z</time>
      </trkpt>
      <trkpt lat="47.24754" lon="-1.54176">
        <ele>3.36</ele>
        <time>2024-03-31T13:46:42Z</time>
      </trkpt>
      <trkpt lat="47.2477" lon="-1.54157">
        <ele>3</ele>
        <time>2024-03-31T13:46:58Z</time>
      </trkpt>
      <trkpt lat="47.24783" lon="-1.5413">
        <ele>3</ele>
        <time>2024-03-31T13:47:14Z</time>
      </trkpt>
      <trkpt lat="47.24798" lon="-1.54101">
        <ele>3</ele>
        <time>2024-03-31T13:47:34Z</time>
      </trkpt>
      <trkpt lat="47.24812" lon="-1.54083">
        <ele>3.7</ele>
        <time>2024-03-31T13:47:46Z</time>
      </trkpt>
      <trkpt lat="47.24819" lon="-1.54053">
        <ele>4</ele>
        <time>2024-03-31T13:48:06Z</time>
      </trkpt>
      <trkpt lat="47.24822" lon="-1.54018">
        <ele>4</ele>
        <time>2024-03-31T13:48:22Z</time>
      </trkpt>
      <trkpt lat="47.24842" lon="-1.54007">
        <ele>3.09</ele>
        <time>2024-03-31T13:48:38Z</time>
      </trkpt>
      <trkpt lat="47.24861" lon="-1.53996">
        <ele>5.8</ele>
        <time>2024-03-31T13:48:54Z</time>
      </trkpt>
      <trkpt lat="47.24868" lon="-1.53963">
        <ele>7</ele>
        <time>2024-03-31T13:49:14Z</time>
      </trkpt>
      <trkpt lat="47.24876" lon="-1.53932">
        <ele>7</ele>
        <time>2024-03-31T13:49:30Z</time>
      </trkpt>
      <trkpt lat="47.24896" lon="-1.53925">
        <ele>7</ele>
        <time>2024-03-31T13:49:46Z</time>
      </trkpt>
      <trkpt lat="47.24916" lon="-1.53939">
        <ele>7</ele>
        <time>2024-03-31T13:50:06Z</time>
      </trkpt>
      <trkpt lat="47.24932" lon="-1.53965">
        <ele>3.03</ele>
        <time>2024-03-31T13:50:22Z</time>
      </trkpt>
      <trkpt lat="47.24955" lon="-1.53977">
        <ele>3</ele>
        <time>2024-03-31T13:50:38Z</time>
      </trkpt>
      <trkpt lat="47.24973" lon="-1.53972">
        <ele>3</ele>
        <time>2024-03-31T13:50:50Z</time>
      </trkpt>
      <trkpt lat="47.24985" lon="-1.53952">
        <ele>3</ele>
        <time>2024-03-31T13:51:06Z</time>
      </trkpt>
      <trkpt lat="47.24999" lon="-1.53933">
        <ele>3</ele>
        <time>2024-03-31T13:51:18Z</time>
      </trkpt>
      <trkpt lat="47.25013" lon="-1.53913">
        <ele>3.7</ele>
        <time>2024-03-31T13:51:30Z</time>
      </trkpt>
      <trkpt lat="47.25025" lon="-1.53892">
        <ele>4</ele>
        <time>2024-03-31T13:51:46Z</time>
      </trkpt>
      <trkpt lat="47.25021" lon="-1.5386">
        <ele>4</ele>
        <time>2024-03-31T13:52:02Z</time>
      </trkpt>
      <trkpt lat="47.25017" lon="-1.53829">
        <ele>10.3</ele>
        <time>2024-03-31T13:52:18Z</time>
      </trkpt>
      <trkpt lat="47.25039" lon="-1.53821">
        <ele>12.98</ele>
        <time>2024-03-31T13:52:34Z</time>
      </trkpt>
      <trkpt lat="47.25056" lon="-1.53844">
        <ele>4.81</ele>
        <time>2024-03-31T13:52:50Z</time>
      </trkpt>
      <trkpt lat="47.25069" lon="-1.53866">
        <ele>4.01</ele>
        <time>2024-03-31T13:53:06Z</time>
      </trkpt>
      <trkpt lat="47.2509" lon="-1.53875">
        <ele>4</ele>
        <time>2024-03-31T13:53:50Z</time>
      </trkpt>
      <trkpt lat="47.25108" lon="-1.53884">
        <ele>4</ele>
        <time>2024-03-31T13:54:06Z</time>
      </trkpt>
      <trkpt lat="47.25127" lon="-1.53879">
        <ele>4</ele>
        <time>2024-03-31T13:54:18Z</time>
      </trkpt>
      <trkpt lat="47.25147" lon="-1.53875">
        <ele>4</ele>
        <time>2024-03-31T13:54:30Z</time>
      </trkpt>
      <trkpt lat="47.25171" lon="-1.53868">
        <ele>4</ele>
        <time>2024-03-31T13:54:46Z</time>
      </trkpt>
      <trkpt lat="47.25193" lon="-1.53863">
        <ele>4</ele>
        <time>2024-03-31T13:55:02Z</time>
      </trkpt>
      <trkpt lat="47.25217" lon="-1.53856">
        <ele>4</ele>
        <time>2024-03-31T13:55:18Z</time>
      </trkpt>
      <trkpt lat="47.25238" lon="-1.53843">
        <ele>4</ele>
        <time>2024-03-31T13:55:30Z</time>
      </trkpt>
      <trkpt lat="47.25256" lon="-1.53821">
        <ele>7.89</ele>
        <time>2024-03-31T13:55:46Z</time>
      </trkpt>
      <trkpt lat="47.25279" lon="-1.53812">
        <ele>8</ele>
        <time>2024-03-31T13:56:02Z</time>
      </trkpt>
      <trkpt lat="47.25297" lon="-1.53804">
        <ele>8</ele>
        <time>2024-03-31T13:56:14Z</time>
      </trkpt>
      <trkpt lat="47.25315" lon="-1.53804">
        <ele>8</ele>
        <time>2024-03-31T13:56:26Z</time>
      </trkpt>
      <trkpt lat="47.25336" lon="-1.53807">
        <ele>10.8</ele>
        <time>2024-03-31T13:56:42Z</time>
      </trkpt>
      <trkpt lat="47.25356" lon="-1.53806">
        <ele>11.99</ele>
        <time>2024-03-31T13:56:58Z</time>
      </trkpt>
      <trkpt lat="47.25376" lon="-1.53813">
        <ele>12</ele>
        <time>2024-03-31T13:57:10Z</time>
      </trkpt>
      <trkpt lat="47.25398" lon="-1.53817">
        <ele>12</ele>
        <time>2024-03-31T13:57:22Z</time>
      </trkpt>
      <trkpt lat="47.25421" lon="-1.53818">
        <ele>10.6</ele>
        <time>2024-03-31T13:57:42Z</time>
      </trkpt>
      <trkpt lat="47.2544" lon="-1.53817">
        <ele>10.02</ele>
        <time>2024-03-31T13:57:54Z</time>
      </trkpt>
      <trkpt lat="47.25461" lon="-1.5382">
        <ele>10</ele>
        <time>2024-03-31T13:58:10Z</time>
      </trkpt>
      <trkpt lat="47.25487" lon="-1.53822">
        <ele>10</ele>
        <time>2024-03-31T13:58:26Z</time>
      </trkpt>
      <trkpt lat="47.25506" lon="-1.53818">
        <ele>9.09</ele>
        <time>2024-03-31T13:58:42Z</time>
      </trkpt>
      <trkpt lat="47.25527" lon="-1.53818">
        <ele>9</ele>
        <time>2024-03-31T13:58:58Z</time>
      </trkpt>
      <trkpt lat="47.25549" lon="-1.53807">
        <ele>9</ele>
        <time>2024-03-31T13:59:19Z</time>
      </trkpt>
      <trkpt lat="47.2556" lon="-1.53778">
        <ele>9</ele>
        <time>2024-03-31T13:59:40Z</time>
      </trkpt>
      <trkpt lat="47.25551" lon="-1.53751">
        <ele>9</ele>
        <time>2024-03-31T13:59:58Z</time>
      </trkpt>
      <trkpt lat="47.25541" lon="-1.53727">
        <ele>9.99</ele>
        <time>2024-03-31T14:00:14Z</time>
      </trkpt>
      <trkpt lat="47.25532" lon="-1.53698">
        <ele>10</ele>
        <time>2024-03-31T14:00:31Z</time>
      </trkpt>
      <trkpt lat="47.25526" lon="-1.53665">
        <ele>10.7</ele>
        <time>2024-03-31T14:00:47Z</time>
      </trkpt>
      <trkpt lat="47.25517" lon="-1.53636">
        <ele>11</ele>
        <time>2024-03-31T14:01:03Z</time>
      </trkpt>
      <trkpt lat="47.2552" lon="-1.53666">
        <ele>11</ele>
        <time>2024-03-31T14:01:23Z</time>
      </trkpt>
      <trkpt lat="47.25523" lon="-1.53697">
        <ele>10.01</ele>
        <time>2024-03-31T14:01:39Z</time>
      </trkpt>
      <trkpt lat="47.25526" lon="-1.53724">
        <ele>10</ele>
        <time>2024-03-31T14:02:03Z</time>
      </trkpt>
      <trkpt lat="47.25533" lon="-1.53753">
        <ele>9.3</ele>
        <time>2024-03-31T14:02:20Z</time>
      </trkpt>
      <trkpt lat="47.2554" lon="-1.53779">
        <ele>9</ele>
        <time>2024-03-31T14:02:36Z</time>
      </trkpt>
      <trkpt lat="47.25553" lon="-1.53808">
        <ele>9</ele>
        <time>2024-03-31T14:02:52Z</time>
      </trkpt>
      <trkpt lat="47.25561" lon="-1.53835">
        <ele>6.9</ele>
        <time>2024-03-31T14:03:08Z</time>
      </trkpt>
      <trkpt lat="47.25572" lon="-1.53866">
        <ele>6.01</ele>
        <time>2024-03-31T14:03:24Z</time>
      </trkpt>
      <trkpt lat="47.2558" lon="-1.53898">
        <ele>6</ele>
        <time>2024-03-31T14:03:40Z</time>
      </trkpt>
      <trkpt lat="47.25588" lon="-1.53931">
        <ele>12.43</ele>
        <time>2024-03-31T14:03:56Z</time>
      </trkpt>
      <trkpt lat="47.25595" lon="-1.53961">
        <ele>13</ele>
        <time>2024-03-31T14:04:12Z</time>
      </trkpt>
      <trkpt lat="47.25604" lon="-1.53991">
        <ele>13</ele>
        <time>2024-03-31T14:04:28Z</time>
      </trkpt>
      <trkpt lat="47.25612" lon="-1.54017">
        <ele>13.97</ele>
        <time>2024-03-31T14:04:44Z</time>
      </trkpt>
      <trkpt lat="47.25617" lon="-1.54044">
        <ele>14</ele>
        <time>2024-03-31T14:05:20Z</time>
      </trkpt>
      <trkpt lat="47.25619" lon="-1.54018">
        <ele>14</ele>
        <time>2024-03-31T14:06:52Z</time>
      </trkpt>
      <trkpt lat="47.25598" lon="-1.5401">
        <ele>14</ele>
        <time>2024-03-31T14:07:12Z</time>
      </trkpt>
      <trkpt lat="47.25578" lon="-1.54016">
        <ele>18.55</ele>
        <time>2024-03-31T14:07:32Z</time>
      </trkpt>
      <trkpt lat="47.25586" lon="-1.53991">
        <ele>12.76</ele>
        <time>2024-03-31T14:08:16Z</time>
      </trkpt>
      <trkpt lat="47.25603" lon="-1.53982">
        <ele>12.99</ele>
        <time>2024-03-31T14:08:28Z</time>
      </trkpt>
      <trkpt lat="47.25612" lon="-1.53956">
        <ele>13</ele>
        <time>2024-03-31T14:08:48Z</time>
      </trkpt>
      <trkpt lat="47.25635" lon="-1.53944">
        <ele>13</ele>
        <time>2024-03-31T14:09:04Z</time>
      </trkpt>
      <trkpt lat="47.25655" lon="-1.53934">
        <ele>13</ele>
        <time>2024-03-31T14:09:20Z</time>
      </trkpt>
      <trkpt lat="47.25675" lon="-1.53925">
        <ele>12.09</ele>
        <time>2024-03-31T14:09:36Z</time>
      </trkpt>
      <trkpt lat="47.25696" lon="-1.53912">
        <ele>7.45</ele>
        <time>2024-03-31T14:09:52Z</time>
      </trkpt>
      <trkpt lat="47.25717" lon="-1.53911">
        <ele>7</ele>
        <time>2024-03-31T14:10:08Z</time>
      </trkpt>
      <trkpt lat="47.25733" lon="-1.53928">
        <ele>11.55</ele>
        <time>2024-03-31T14:10:20Z</time>
      </trkpt>
      <trkpt lat="47.25746" lon="-1.53948">
        <ele>11.99</ele>
        <time>2024-03-31T14:10:32Z</time>
      </trkpt>
      <trkpt lat="47.25762" lon="-1.53966">
        <ele>12.97</ele>
        <time>2024-03-31T14:10:48Z</time>
      </trkpt>
      <trkpt lat="47.25783" lon="-1.53957">
        <ele>13</ele>
        <time>2024-03-31T14:11:04Z</time>
      </trkpt>
      <trkpt lat="47.25804" lon="-1.53949">
        <ele>13</ele>
        <time>2024-03-31T14:11:20Z</time>
      </trkpt>
      <trkpt lat="47.25824" lon="-1.53945">
        <ele>13</ele>
        <time>2024-03-31T14:11:36Z</time>
      </trkpt>
      <trkpt lat="47.25843" lon="-1.53934">
        <ele>14.95</ele>
        <time>2024-03-31T14:11:52Z</time>
      </trkpt>
      <trkpt lat="47.25862" lon="-1.53917">
        <ele>15</ele>
        <time>2024-03-31T14:12:08Z</time>
      </trkpt>
      <trkpt lat="47.25885" lon="-1.53906">
        <ele>10.04</ele>
        <time>2024-03-31T14:12:24Z</time>
      </trkpt>
      <trkpt lat="47.25903" lon="-1.53896">
        <ele>10</ele>
        <time>2024-03-31T14:12:36Z</time>
      </trkpt>
      <trkpt lat="47.25925" lon="-1.53887">
        <ele>11.82</ele>
        <time>2024-03-31T14:12:52Z</time>
      </trkpt>
      <trkpt lat="47.25943" lon="-1.53872">
        <ele>12</ele>
        <time>2024-03-31T14:13:08Z</time>
      </trkpt>
      <trkpt lat="47.25961" lon="-1.53855">
        <ele>12</ele>
        <time>2024-03-31T14:13:24Z</time>
      </trkpt>
      <trkpt lat="47.25979" lon="-1.53846">
        <ele>12</ele>
        <time>2024-03-31T14:13:40Z</time>
      </trkpt>
      <trkpt lat="47.25999" lon="-1.53841">
        <ele>12</ele>
        <time>2024-03-31T14:13:52Z</time>
      </trkpt>
      <trkpt lat="47.26021" lon="-1.53839">
        <ele>13.98</ele>
        <time>2024-03-31T14:14:08Z</time>
      </trkpt>
      <trkpt lat="47.26043" lon="-1.53838">
        <ele>14</ele>
        <time>2024-03-31T14:14:28Z</time>
      </trkpt>
      <trkpt lat="47.26066" lon="-1.53839">
        <ele>14</ele>
        <time>2024-03-31T14:14:44Z</time>
      </trkpt>
      <trkpt lat="47.26086" lon="-1.53838">
        <ele>18.2</ele>
        <time>2024-03-31T14:15:00Z</time>
      </trkpt>
      <trkpt lat="47.26109" lon="-1.5383">
        <ele>9.98</ele>
        <time>2024-03-31T14:15:16Z</time>
      </trkpt>
      <trkpt lat="47.26132" lon="-1.5383">
        <ele>9</ele>
        <time>2024-03-31T14:15:36Z</time>
      </trkpt>
      <trkpt lat="47.2615" lon="-1.53831">
        <ele>9</ele>
        <time>2024-03-31T14:15:52Z</time>
      </trkpt>
      <trkpt lat="47.26171" lon="-1.53839">
        <ele>14.8</ele>
        <time>2024-03-31T14:16:08Z</time>
      </trkpt>
      <trkpt lat="47.26193" lon="-1.5385">
        <ele>13.01</ele>
        <time>2024-03-31T14:16:24Z</time>
      </trkpt>
      <trkpt lat="47.26213" lon="-1.53864">
        <ele>13</ele>
        <time>2024-03-31T14:16:41Z</time>
      </trkpt>
      <trkpt lat="47.26229" lon="-1.53879">
        <ele>13</ele>
        <time>2024-03-31T14:16:57Z</time>
      </trkpt>
      <trkpt lat="47.26249" lon="-1.53897">
        <ele>13</ele>
        <time>2024-03-31T14:17:13Z</time>
      </trkpt>
      <trkpt lat="47.26268" lon="-1.53913">
        <ele>6.06</ele>
        <time>2024-03-31T14:17:29Z</time>
      </trkpt>
      <trkpt lat="47.26284" lon="-1.5393">
        <ele>8.98</ele>
        <time>2024-03-31T14:17:45Z</time>
      </trkpt>
      <trkpt lat="47.26302" lon="-1.53946">
        <ele>9</ele>
        <time>2024-03-31T14:18:01Z</time>
      </trkpt>
      <trkpt lat="47.26318" lon="-1.5396">
        <ele>9</ele>
        <time>2024-03-31T14:18:17Z</time>
      </trkpt>
      <trkpt lat="47.26336" lon="-1.53971">
        <ele>6.9</ele>
        <time>2024-03-31T14:18:33Z</time>
      </trkpt>
      <trkpt lat="47.26358" lon="-1.53981">
        <ele>6.01</ele>
        <time>2024-03-31T14:18:49Z</time>
      </trkpt>
      <trkpt lat="47.26381" lon="-1.53984">
        <ele>6</ele>
        <time>2024-03-31T14:19:05Z</time>
      </trkpt>
      <trkpt lat="47.26403" lon="-1.53989">
        <ele>6</ele>
        <time>2024-03-31T14:19:21Z</time>
      </trkpt>
      <trkpt lat="47.26423" lon="-1.53992">
        <ele>6</ele>
        <time>2024-03-31T14:19:37Z</time>
      </trkpt>
      <trkpt lat="47.26446" lon="-1.53995">
        <ele>6</ele>
        <time>2024-03-31T14:19:53Z</time>
      </trkpt>
      <trkpt lat="47.26466" lon="-1.53992">
        <ele>6</ele>
        <time>2024-03-31T14:20:09Z</time>
      </trkpt>
      <trkpt lat="47.26485" lon="-1.53985">
        <ele>6</ele>
        <time>2024-03-31T14:20:25Z</time>
      </trkpt>
      <trkpt lat="47.26497" lon="-1.54008">
        <ele>9.64</ele>
        <time>2024-03-31T14:20:41Z</time>
      </trkpt>
      <trkpt lat="47.26511" lon="-1.54036">
        <ele>14.96</ele>
        <time>2024-03-31T14:20:57Z</time>
      </trkpt>
      <trkpt lat="47.26522" lon="-1.54065">
        <ele>15</ele>
        <time>2024-03-31T14:21:17Z</time>
      </trkpt>
      <trkpt lat="47.26533" lon="-1.54089">
        <ele>15.7</ele>
        <time>2024-03-31T14:21:33Z</time>
      </trkpt>
      <trkpt lat="47.26544" lon="-1.54115">
        <ele>16</ele>
        <time>2024-03-31T14:21:49Z</time>
      </trkpt>
      <trkpt lat="47.26556" lon="-1.5414">
        <ele>16</ele>
        <time>2024-03-31T14:22:05Z</time>
      </trkpt>
      <trkpt lat="47.26568" lon="-1.54165">
        <ele>16</ele>
        <time>2024-03-31T14:22:21Z</time>
      </trkpt>
      <trkpt lat="47.26579" lon="-1.5419">
        <ele>16.99</ele>
        <time>2024-03-31T14:22:37Z</time>
      </trkpt>
      <trkpt lat="47.2659" lon="-1.54218">
        <ele>20.89</ele>
        <time>2024-03-31T14:22:57Z</time>
      </trkpt>
      <trkpt lat="47.26602" lon="-1.54238">
        <ele>21</ele>
        <time>2024-03-31T14:23:09Z</time>
      </trkpt>
      <trkpt lat="47.26614" lon="-1.54262">
        <ele>21</ele>
        <time>2024-03-31T14:23:25Z</time>
      </trkpt>
      <trkpt lat="47.26628" lon="-1.54288">
        <ele>21</ele>
        <time>2024-03-31T14:23:41Z</time>
      </trkpt>
      <trkpt lat="47.26633" lon="-1.54315">
        <ele>21</ele>
        <time>2024-03-31T14:23:53Z</time>
      </trkpt>
      <trkpt lat="47.26637" lon="-1.54343">
        <ele>22.82</ele>
        <time>2024-03-31T14:24:09Z</time>
      </trkpt>
      <trkpt lat="47.26633" lon="-1.54372">
        <ele>23</ele>
        <time>2024-03-31T14:24:45Z</time>
      </trkpt>
      <trkpt lat="47.26611" lon="-1.54381">
        <ele>23</ele>
        <time>2024-03-31T14:25:01Z</time>
      </trkpt>
      <trkpt lat="47.26592" lon="-1.54387">
        <ele>23</ele>
        <time>2024-03-31T14:25:13Z</time>
      </trkpt>
      <trkpt lat="47.26581" lon="-1.54409">
        <ele>22.01</ele>
        <time>2024-03-31T14:25:33Z</time>
      </trkpt>
      <trkpt lat="47.26586" lon="-1.54441">
        <ele>24.94</ele>
        <time>2024-03-31T14:25:49Z</time>
      </trkpt>
      <trkpt lat="47.266" lon="-1.54464">
        <ele>25</ele>
        <time>2024-03-31T14:26:05Z</time>
      </trkpt>
      <trkpt lat="47.2662" lon="-1.54459">
        <ele>25</ele>
        <time>2024-03-31T14:26:21Z</time>
      </trkpt>
      <trkpt lat="47.26644" lon="-1.54455">
        <ele>25</ele>
        <time>2024-03-31T14:26:37Z</time>
      </trkpt>
      <trkpt lat="47.26667" lon="-1.54453">
        <ele>27.1</ele>
        <time>2024-03-31T14:26:53Z</time>
      </trkpt>
      <trkpt lat="47.26686" lon="-1.54458">
        <ele>27.99</ele>
        <time>2024-03-31T14:27:09Z</time>
      </trkpt>
      <trkpt lat="47.26707" lon="-1.54464">
        <ele>28</ele>
        <time>2024-03-31T14:27:25Z</time>
      </trkpt>
      <trkpt lat="47.26727" lon="-1.54469">
        <ele>28</ele>
        <time>2024-03-31T14:27:41Z</time>
      </trkpt>
      <trkpt lat="47.26745" lon="-1.54482">
        <ele>28</ele>
        <time>2024-03-31T14:27:57Z</time>
      </trkpt>
      <trkpt lat="47.26761" lon="-1.545">
        <ele>28.91</ele>
        <time>2024-03-31T14:28:13Z</time>
      </trkpt>
      <trkpt lat="47.26782" lon="-1.54509">
        <ele>29</ele>
        <time>2024-03-31T14:28:33Z</time>
      </trkpt>
      <trkpt lat="47.26798" lon="-1.54527">
        <ele>29</ele>
        <time>2024-03-31T14:28:49Z</time>
      </trkpt>
      <trkpt lat="47.26815" lon="-1.54547">
        <ele>29</ele>
        <time>2024-03-31T14:29:05Z</time>
      </trkpt>
      <trkpt lat="47.26833" lon="-1.54559">
        <ele>29</ele>
        <time>2024-03-31T14:29:37Z</time>
      </trkpt>
      <trkpt lat="47.26851" lon="-1.54559">
        <ele>32</ele>
        <time>2024-03-31T14:31:01Z</time>
      </trkpt>
      <trkpt lat="47.26869" lon="-1.54549">
        <ele>32</ele>
        <time>2024-03-31T14:31:17Z</time>
      </trkpt>
      <trkpt lat="47.26885" lon="-1.54537">
        <ele>32</ele>
        <time>2024-03-31T14:31:33Z</time>
      </trkpt>
      <trkpt lat="47.26898" lon="-1.54512">
        <ele>32</ele>
        <time>2024-03-31T14:31:49Z</time>
      </trkpt>
      <trkpt lat="47.26902" lon="-1.54481">
        <ele>28.11</ele>
        <time>2024-03-31T14:32:05Z</time>
      </trkpt>
    </trkseg>
  </trk>
</gpx>